createdAt,value
2023-02-03T00:01:47.339Z,42.83
2023-02-03T00:04:13.908Z,46.63
2023-02-03T00:06:40.685Z,44.33
2023-02-03T00:09:07.323Z,42.30
2023-02-03T00:11:33.763Z,41.93
2023-02-03T00:14:00.323Z,44.43
2023-02-03T00:16:26.833Z,46.03
2023-02-03T00:18:53.334Z,43.40
2023-02-03T00:21:20.222Z,45.23
2023-02-03T00:23:46.664Z,40.70
2023-02-03T00:26:15.838Z,47.60
2023-02-03T00:28:44.041Z,42.97
2023-02-03T00:31:21.143Z,41.40
2023-02-03T00:33:48.395Z,40.40
2023-02-03T00:36:17.194Z,40.90
2023-02-03T00:38:43.593Z,41.07
2023-02-03T00:41:10.117Z,38.63
2023-02-03T00:43:36.671Z,42.97
2023-02-03T00:46:03.123Z,36.13
2023-02-03T00:48:29.696Z,37.00
2023-02-03T00:50:56.247Z,34.73
2023-02-03T00:53:25.119Z,37.47
2023-02-03T00:55:52.059Z,37.00
2023-02-03T00:58:18.597Z,35.13
2023-02-03T01:00:45.110Z,32.73
2023-02-03T01:03:11.609Z,34.73
2023-02-03T01:05:38.034Z,31.63
2023-02-03T01:08:04.923Z,29.90
2023-02-03T01:10:31.776Z,29.83
2023-02-03T01:12:58.378Z,28.80
2023-02-03T01:15:27.687Z,27.93
2023-02-03T01:17:54.092Z,27.63
2023-02-03T01:20:21.580Z,30.43
2023-02-03T01:22:48.546Z,30.47
2023-02-03T01:25:15.110Z,30.10
2023-02-03T01:27:41.550Z,29.80
2023-02-03T01:30:08.571Z,28.20
2023-02-03T01:32:35.070Z,27.50
2023-02-03T01:35:04.223Z,25.93
2023-02-03T01:37:30.625Z,26.63
2023-02-03T01:39:57.755Z,24.30
2023-02-03T01:42:24.195Z,25.53
2023-02-03T01:44:52.194Z,24.07
2023-02-03T01:47:27.760Z,24.27
2023-02-03T01:50:05.692Z,22.70
2023-02-03T01:52:32.962Z,24.10
2023-02-03T01:55:03.327Z,24.40
2023-02-03T01:57:36.766Z,24.93
2023-02-03T02:00:06.898Z,24.37
2023-02-03T02:02:40.862Z,25.03
2023-02-03T02:05:14.959Z,22.53
2023-02-03T02:07:43.403Z,25.53
2023-02-03T02:10:10.795Z,27.83
2023-02-03T02:12:37.623Z,22.07
2023-02-03T02:15:04.618Z,23.90
2023-02-03T02:18:07.596Z,22.70
2023-02-03T02:20:50.545Z,21.53
2023-02-03T02:23:35.873Z,22.50
2023-02-03T02:26:31.127Z,23.67
2023-02-03T02:29:28.363Z,20.07
2023-02-03T02:32:20.984Z,21.30
2023-02-03T02:35:04.143Z,21.20
2023-02-03T02:37:59.155Z,19.50
2023-02-03T02:40:33.160Z,21.17
2023-02-03T02:43:21.788Z,19.77
2023-02-03T02:45:50.622Z,19.30
2023-02-03T02:48:26.862Z,20.13
2023-02-03T02:50:57.907Z,18.80
2023-02-03T02:53:29.163Z,18.20
2023-02-03T02:55:58.686Z,16.37
2023-02-03T02:58:27.553Z,16.40
2023-02-03T03:00:54.890Z,18.23
2023-02-03T03:03:23.940Z,18.10
2023-02-03T03:06:00.203Z,16.53
2023-02-03T03:08:51.762Z,18.57
2023-02-03T03:11:18.634Z,20.47
2023-02-03T03:13:49.756Z,18.63
2023-02-03T03:16:20.807Z,21.50
2023-02-03T03:18:51.384Z,19.37
2023-02-03T03:21:24.463Z,22.90
2023-02-03T03:23:54.564Z,16.50
2023-02-03T03:26:39.997Z,18.00
2023-02-03T03:29:13.340Z,17.00
2023-02-03T03:31:41.086Z,15.77
2023-02-03T03:34:12.211Z,14.13
2023-02-03T03:36:56.469Z,13.33
2023-02-03T03:39:31.582Z,14.60
2023-02-03T03:42:06.664Z,17.07
2023-02-03T03:44:39.870Z,17.30
2023-02-03T03:47:14.947Z,16.67
2023-02-03T03:49:45.078Z,17.87
2023-02-03T03:52:16.631Z,17.83
2023-02-03T03:54:44.638Z,15.90
2023-02-03T03:57:17.671Z,16.43
2023-02-03T03:59:48.620Z,18.50
2023-02-03T04:02:17.376Z,15.70
2023-02-03T04:04:45.180Z,14.83
2023-02-03T04:07:15.367Z,13.63
2023-02-03T04:09:42.903Z,13.57
2023-02-03T04:12:18.948Z,12.07
2023-02-03T04:14:45.363Z,14.13
2023-02-03T04:17:11.777Z,13.50
2023-02-03T04:19:38.224Z,13.60
2023-02-03T04:22:05.459Z,13.43
2023-02-03T04:24:31.892Z,15.03
2023-02-03T04:26:58.482Z,17.10
2023-02-03T04:29:24.926Z,12.93
2023-02-03T04:31:51.550Z,15.87
2023-02-03T04:34:18.012Z,14.43
2023-02-03T04:36:44.410Z,13.30
2023-02-03T04:39:10.862Z,13.53
2023-02-03T04:41:37.617Z,16.03
2023-02-03T04:44:04.181Z,14.40
2023-02-03T04:46:30.669Z,14.63
2023-02-03T04:48:57.723Z,15.60
2023-02-03T04:51:24.259Z,15.60
2023-02-03T04:53:50.682Z,15.47
2023-02-03T04:56:17.092Z,17.00
2023-02-03T04:58:43.521Z,14.73
2023-02-03T05:01:10.151Z,11.70
2023-02-03T05:03:37.019Z,14.23
2023-02-03T05:06:05.410Z,13.30
2023-02-03T05:08:31.987Z,14.77
2023-02-03T05:11:01.802Z,14.67
2023-02-03T05:13:28.834Z,13.37
2023-02-03T05:15:55.356Z,10.97
2023-02-03T05:18:21.802Z,13.27
2023-02-03T05:20:48.225Z,13.67
2023-02-03T05:23:14.682Z,13.47
2023-02-03T05:25:43.660Z,10.53
2023-02-03T05:28:10.122Z,14.27
2023-02-03T05:30:36.850Z,13.13
2023-02-03T05:33:03.443Z,15.43
2023-02-03T05:35:29.886Z,15.17
2023-02-03T05:37:56.699Z,13.23
2023-02-03T05:40:41.909Z,14.83
2023-02-03T05:43:08.399Z,14.47
2023-02-03T05:45:35.225Z,13.33
2023-02-03T05:48:02.627Z,23.10
2023-02-03T05:50:33.250Z,15.77
2023-02-03T05:53:07.699Z,16.00
2023-02-03T05:55:35.622Z,17.50
2023-02-03T05:58:02.126Z,13.63
2023-02-03T06:00:29.862Z,12.93
2023-02-03T06:03:02.341Z,13.07
2023-02-03T06:05:30.395Z,16.27
2023-02-03T06:07:57.084Z,13.27
2023-02-03T06:10:23.529Z,16.97
2023-02-03T06:12:50.646Z,13.80
2023-02-03T06:15:17.638Z,15.00
2023-02-03T06:17:46.086Z,16.20
2023-02-03T06:20:13.979Z,14.57
2023-02-03T06:22:40.457Z,15.93
2023-02-03T06:25:07.398Z,13.97
2023-02-03T06:27:34.028Z,12.40
2023-02-03T06:30:00.766Z,14.37
2023-02-03T06:32:28.987Z,14.83
2023-02-03T06:34:55.455Z,14.27
2023-02-03T06:37:23.841Z,17.73
2023-02-03T06:39:51.020Z,16.53
2023-02-03T06:42:18.601Z,13.60
2023-02-03T06:44:45.055Z,17.20
2023-02-03T06:47:11.500Z,13.80
2023-02-03T06:49:39.009Z,14.13
2023-02-03T06:52:05.426Z,15.87
2023-02-03T06:54:31.886Z,16.90
2023-02-03T06:56:58.438Z,14.10
2023-02-03T06:59:25.002Z,13.73
2023-02-03T07:01:51.573Z,12.53
2023-02-03T07:04:18.095Z,13.33
2023-02-03T07:06:44.556Z,12.87
2023-02-03T07:09:11.000Z,13.60
2023-02-03T07:11:37.423Z,17.40
2023-02-03T07:14:04.029Z,14.87
2023-02-03T07:16:31.306Z,16.50
2023-02-03T07:18:58.160Z,12.93
2023-02-03T07:21:24.581Z,10.43
2023-02-03T07:23:51.035Z,14.37
2023-02-03T07:26:18.763Z,10.10
2023-02-03T07:28:45.554Z,12.17
2023-02-03T07:31:12.102Z,10.70
2023-02-03T07:33:39.234Z,12.03
2023-02-03T07:36:06.933Z,13.70
2023-02-03T07:38:33.536Z,13.60
2023-02-03T07:40:59.954Z,15.37
2023-02-03T07:43:26.981Z,14.10
2023-02-03T07:45:53.441Z,19.30
2023-02-03T07:48:19.933Z,15.03
2023-02-03T07:50:48.255Z,12.53
2023-02-03T07:53:15.616Z,17.07
2023-02-03T07:55:42.034Z,15.63
2023-02-03T07:58:08.502Z,16.60
2023-02-03T08:00:35.489Z,12.20
2023-02-03T08:03:02.573Z,15.63
2023-02-03T08:05:30.495Z,14.30
2023-02-03T08:07:59.438Z,16.77
2023-02-03T08:10:26.454Z,18.03
2023-02-03T08:12:54.684Z,15.37
2023-02-03T08:15:21.470Z,14.20
2023-02-03T08:17:50.873Z,13.13
2023-02-03T08:20:18.047Z,13.20
2023-02-03T08:22:44.936Z,15.03
2023-02-03T08:25:12.087Z,11.83
2023-02-03T08:27:40.012Z,14.83
2023-02-03T08:30:08.607Z,15.23
2023-02-03T08:32:35.054Z,12.73
2023-02-03T08:35:01.808Z,16.03
2023-02-03T08:37:30.152Z,14.87
2023-02-03T08:39:57.160Z,11.37
2023-02-03T08:42:23.755Z,11.93
2023-02-03T08:44:50.286Z,13.80
2023-02-03T08:47:16.909Z,13.23
2023-02-03T08:49:43.407Z,14.73
2023-02-03T08:52:12.355Z,11.90
2023-02-03T08:54:39.902Z,16.17
2023-02-03T08:57:07.902Z,13.30
2023-02-03T08:59:37.770Z,13.53
2023-02-03T09:02:05.891Z,10.70
2023-02-03T09:04:33.432Z,12.07
2023-02-03T09:07:00.895Z,15.33
2023-02-03T09:09:28.997Z,15.90
2023-02-03T09:12:02.680Z,10.47
2023-02-03T09:14:29.940Z,10.87
2023-02-03T09:16:56.751Z,10.37
2023-02-03T09:19:24.055Z,11.67
2023-02-03T09:21:50.802Z,10.77
2023-02-03T09:24:18.559Z,8.80
2023-02-03T09:26:45.501Z,13.37
2023-02-03T09:29:12.246Z,8.23
2023-02-03T09:31:39.251Z,17.57
2023-02-03T09:34:05.757Z,10.70
2023-02-03T09:36:32.169Z,11.77
2023-02-03T09:38:58.812Z,11.37
2023-02-03T09:41:48.527Z,14.80
2023-02-03T09:44:26.818Z,15.27
2023-02-03T09:47:04.827Z,10.97
2023-02-03T09:49:47.206Z,15.03
2023-02-03T09:52:22.703Z,15.63
2023-02-03T09:55:03.376Z,12.17
2023-02-03T09:57:32.421Z,10.73
2023-02-03T10:00:02.548Z,11.60
2023-02-03T10:02:50.452Z,9.23
2023-02-03T10:05:29.802Z,13.47
2023-02-03T10:08:16.018Z,14.10
2023-02-03T10:11:09.394Z,14.63
2023-02-03T10:13:47.037Z,12.60
2023-02-03T10:16:21.977Z,12.87
2023-02-03T10:18:55.125Z,13.90
2023-02-03T10:21:40.095Z,10.67
2023-02-03T10:24:14.204Z,9.80
2023-02-03T10:26:41.804Z,8.93
2023-02-03T10:29:18.321Z,9.07
2023-02-03T10:31:46.659Z,9.73
2023-02-03T10:34:15.547Z,9.93
2023-02-03T10:36:52.906Z,8.57
2023-02-03T10:39:29.396Z,9.40
2023-02-03T10:41:56.120Z,11.13
2023-02-03T10:44:36.455Z,6.03
2023-02-03T10:47:28.670Z,8.93
2023-02-03T10:49:57.560Z,12.50
2023-02-03T10:52:33.967Z,12.07
2023-02-03T10:55:30.038Z,10.07
2023-02-03T10:57:57.979Z,6.80
2023-02-03T11:00:34.319Z,9.83
2023-02-03T11:03:05.476Z,9.03
2023-02-03T11:05:32.356Z,13.40
2023-02-03T11:07:58.858Z,13.73
2023-02-03T11:10:37.904Z,14.70
2023-02-03T11:13:19.680Z,16.20
2023-02-03T11:15:57.214Z,12.60
2023-02-03T11:18:37.483Z,14.33
2023-02-03T11:21:18.044Z,12.97
2023-02-03T11:23:49.034Z,21.17
2023-02-03T11:26:19.900Z,18.00
2023-02-03T11:28:48.975Z,19.37
2023-02-03T11:31:18.810Z,18.00
2023-02-03T11:33:52.691Z,15.00
2023-02-03T11:36:20.012Z,19.53
2023-02-03T11:38:46.531Z,20.13
2023-02-03T11:41:18.590Z,18.03
2023-02-03T11:43:45.731Z,17.67
2023-02-03T11:46:13.631Z,17.67
2023-02-03T11:48:57.072Z,16.97
2023-02-03T11:51:51.753Z,18.57
2023-02-03T11:54:44.976Z,19.03
2023-02-03T11:57:39.433Z,13.97
2023-02-03T12:00:10.687Z,17.07
2023-02-03T12:02:50.552Z,20.43
2023-02-03T12:05:32.296Z,13.70
2023-02-03T12:08:18.036Z,21.20
2023-02-03T12:11:00.830Z,13.53
2023-02-03T12:13:36.949Z,21.53
2023-02-03T12:16:15.482Z,17.53
2023-02-03T12:18:57.047Z,24.77
2023-02-03T12:21:57.064Z,22.43
2023-02-03T12:24:55.074Z,20.87
2023-02-03T12:27:50.224Z,18.03
2023-02-03T12:30:24.904Z,20.13
2023-02-03T12:33:11.723Z,19.87
2023-02-03T12:35:54.824Z,21.60
2023-02-03T12:38:30.176Z,16.27
2023-02-03T12:41:01.236Z,22.97
2023-02-03T12:43:37.658Z,19.80
2023-02-03T12:46:12.941Z,18.50
2023-02-03T12:48:54.924Z,13.23
2023-02-03T12:51:33.530Z,17.83
2023-02-03T12:54:09.812Z,18.47
2023-02-03T12:56:41.991Z,16.50
2023-02-03T12:59:18.308Z,18.70
2023-02-03T13:01:53.731Z,14.43
2023-02-03T13:04:43.895Z,17.10
2023-02-03T13:07:30.107Z,16.93
2023-02-03T13:10:03.641Z,23.33
2023-02-03T13:12:35.980Z,18.37
2023-02-03T13:15:29.428Z,21.93
2023-02-03T13:18:21.491Z,17.20
2023-02-03T13:20:47.931Z,18.30
2023-02-03T13:23:15.872Z,20.37
2023-02-03T13:25:54.715Z,16.97
2023-02-03T13:28:42.903Z,20.40
2023-02-03T13:31:21.727Z,21.37
2023-02-03T13:34:19.134Z,15.33
2023-02-03T13:37:16.927Z,16.43
2023-02-03T13:39:58.538Z,15.93
2023-02-03T13:42:28.399Z,17.27
2023-02-03T13:45:22.191Z,20.63
2023-02-03T13:47:52.698Z,18.30
2023-02-03T13:50:31.492Z,18.77
2023-02-03T13:53:02.915Z,17.83
2023-02-03T13:55:38.930Z,19.17
2023-02-03T13:58:18.213Z,17.27
2023-02-03T14:00:45.553Z,17.33
2023-02-03T14:03:19.399Z,19.87
2023-02-03T14:05:52.011Z,16.53
2023-02-03T14:08:30.360Z,18.87
2023-02-03T14:11:34.268Z,17.70
2023-02-03T14:14:12.593Z,18.77
2023-02-03T14:16:44.105Z,14.90
2023-02-03T14:19:12.222Z,13.47
2023-02-03T14:21:42.596Z,15.97
2023-02-03T14:24:12.614Z,17.03
2023-02-03T14:26:43.032Z,21.47
2023-02-03T14:29:23.315Z,16.57
2023-02-03T14:32:00.273Z,20.07
2023-02-03T14:34:38.248Z,18.50
2023-02-03T14:37:26.255Z,17.07
2023-02-03T14:40:30.273Z,17.97
2023-02-03T14:43:34.754Z,19.00
2023-02-03T14:46:32.084Z,18.03
2023-02-03T14:49:21.145Z,16.50
2023-02-03T14:52:22.302Z,17.37
2023-02-03T14:55:03.773Z,22.13
2023-02-03T14:57:49.967Z,19.17
2023-02-03T15:00:19.116Z,15.20
2023-02-03T15:03:11.885Z,19.17
2023-02-03T15:05:41.038Z,12.17
2023-02-03T15:08:30.674Z,15.03
2023-02-03T15:10:57.509Z,17.27
2023-02-03T15:13:31.461Z,19.37
2023-02-03T15:16:01.678Z,16.13
2023-02-03T15:18:31.613Z,15.87
2023-02-03T15:20:58.914Z,17.20
2023-02-03T15:23:29.187Z,24.60
2023-02-03T15:25:56.651Z,18.03
2023-02-03T15:28:25.078Z,18.67
2023-02-03T15:31:18.954Z,15.13
2023-02-03T15:33:47.817Z,16.40
2023-02-03T15:36:21.516Z,21.10
2023-02-03T15:39:15.675Z,19.30
2023-02-03T15:41:42.826Z,18.37
2023-02-03T15:44:22.155Z,24.30
2023-02-03T15:46:52.411Z,27.80
2023-02-03T15:49:33.971Z,24.17
2023-02-03T15:52:07.178Z,23.23
2023-02-03T15:54:45.890Z,27.70
2023-02-03T15:57:21.578Z,19.23
2023-02-03T15:59:56.503Z,20.13
2023-02-03T16:02:30.522Z,20.20
2023-02-03T16:04:58.146Z,24.90
2023-02-03T16:07:27.483Z,23.37
2023-02-03T16:09:56.652Z,19.50
2023-02-03T16:12:31.445Z,24.83
2023-02-03T16:14:59.566Z,20.00
2023-02-03T16:17:34.881Z,20.03
2023-02-03T16:20:32.319Z,20.67
2023-02-03T16:23:03.741Z,21.63
2023-02-03T16:25:32.991Z,29.07
2023-02-03T16:28:22.908Z,23.43
2023-02-03T16:31:33.457Z,20.17
2023-02-03T16:34:20.915Z,22.13
2023-02-03T16:37:06.080Z,15.93
2023-02-03T16:39:51.288Z,31.40
2023-02-03T16:42:39.048Z,26.47
2023-02-03T16:45:37.043Z,22.50
2023-02-03T16:48:22.680Z,18.47
2023-02-03T16:50:58.127Z,23.63
2023-02-03T16:53:28.244Z,20.47
2023-02-03T16:55:57.451Z,22.20
2023-02-03T16:58:24.596Z,21.07
2023-02-03T17:00:53.011Z,22.37
2023-02-03T17:03:24.411Z,21.93
2023-02-03T17:05:51.842Z,17.93
2023-02-03T17:08:20.786Z,22.80
2023-02-03T17:10:50.715Z,17.13
2023-02-03T17:13:20.929Z,16.70
2023-02-03T17:15:50.547Z,19.23
2023-02-03T17:18:17.061Z,18.63
2023-02-03T17:20:44.560Z,19.07
2023-02-03T17:23:11.805Z,18.67
2023-02-03T17:25:39.521Z,21.70
2023-02-03T17:28:08.265Z,21.27
2023-02-03T17:30:35.489Z,23.43
2023-02-03T17:33:13.270Z,20.00
2023-02-03T17:35:41.923Z,18.37
2023-02-03T17:38:09.396Z,25.93
2023-02-03T17:54:21.361Z,21.30
2023-02-03T17:56:49.234Z,18.93
2023-02-03T17:59:16.212Z,19.57
2023-02-03T18:01:42.877Z,19.50
2023-02-03T18:04:09.352Z,25.77
2023-02-03T18:06:35.991Z,20.80
2023-02-03T18:09:05.371Z,27.63
2023-02-03T18:11:33.895Z,23.73
2023-02-03T18:14:00.853Z,27.63
2023-02-03T18:16:32.419Z,26.27
2023-02-03T18:19:01.047Z,25.17
2023-02-03T18:21:27.671Z,19.37
2023-02-03T18:23:58.580Z,21.77
2023-02-03T18:26:26.250Z,21.87
2023-02-03T18:28:53.705Z,28.23
2023-02-03T18:31:20.715Z,23.73
2023-02-03T18:33:48.090Z,27.10
2023-02-03T18:36:16.479Z,28.27
2023-02-03T18:38:45.069Z,23.13
2023-02-03T18:41:21.345Z,22.30
2023-02-03T18:43:49.161Z,25.27
2023-02-03T18:46:27.900Z,25.43
2023-02-03T18:48:56.198Z,28.70
2023-02-03T18:51:24.181Z,22.53
2023-02-03T18:53:50.680Z,27.27
2023-02-03T18:56:22.885Z,28.17
2023-02-03T18:58:49.486Z,22.47
2023-02-03T19:01:25.092Z,22.47
2023-02-03T19:03:51.991Z,27.97
2023-02-03T19:06:18.858Z,20.13
2023-02-03T19:08:45.794Z,29.87
2023-02-03T19:11:13.546Z,33.27
2023-02-03T19:13:40.800Z,29.00
2023-02-03T19:16:08.298Z,27.80
2023-02-03T19:18:36.215Z,33.63
2023-02-03T19:21:03.032Z,23.73
2023-02-03T19:23:29.818Z,31.47
2023-02-03T19:25:56.420Z,24.37
2023-02-03T19:28:30.432Z,33.00
2023-02-03T19:31:12.793Z,23.93
2023-02-03T19:33:39.488Z,29.73
2023-02-03T19:36:08.244Z,25.40
2023-02-03T19:38:35.159Z,33.80
2023-02-03T19:41:02.409Z,28.17
2023-02-03T19:43:31.993Z,35.10
2023-02-03T19:45:58.869Z,42.00
2023-02-03T19:48:25.362Z,30.47
2023-02-03T19:50:51.894Z,21.67
2023-02-03T19:53:18.720Z,22.70
2023-02-03T19:55:46.359Z,25.77
2023-02-03T19:58:14.055Z,25.93
2023-02-03T20:00:41.530Z,26.10
2023-02-03T20:03:08.367Z,31.30
2023-02-03T20:05:36.115Z,28.03
2023-02-03T20:08:03.459Z,32.33
2023-02-03T20:10:30.453Z,23.30
2023-02-03T20:12:57.428Z,30.90
2023-02-03T20:15:23.987Z,26.87
2023-02-03T20:17:50.366Z,30.97
2023-02-03T20:20:20.307Z,22.30
2023-02-03T20:22:47.290Z,25.23
2023-02-03T20:25:13.806Z,29.07
2023-02-03T20:27:40.343Z,25.50
2023-02-03T20:30:07.279Z,24.43
2023-02-03T20:32:33.888Z,24.63
2023-02-03T20:35:01.097Z,23.43
2023-02-03T20:37:28.998Z,28.90
2023-02-03T20:39:55.375Z,28.87
2023-02-03T20:42:21.788Z,28.97
2023-02-03T20:44:48.211Z,23.13
2023-02-03T20:47:22.068Z,35.20
2023-02-03T20:49:49.459Z,20.77
2023-02-03T20:52:20.844Z,28.20
2023-02-03T20:54:47.948Z,31.33
2023-02-03T20:57:19.134Z,27.43
2023-02-03T20:59:46.327Z,28.40
2023-02-03T21:02:30.660Z,27.53
2023-02-03T21:04:57.689Z,26.83
2023-02-03T21:07:27.526Z,25.30
2023-02-03T21:09:54.653Z,30.27
2023-02-03T21:12:21.114Z,25.77
2023-02-03T21:14:53.091Z,28.43
2023-02-03T21:17:22.769Z,26.43
2023-02-03T21:19:50.631Z,29.83
2023-02-03T21:22:30.096Z,27.87
2023-02-03T21:25:01.980Z,32.00
2023-02-03T21:27:29.877Z,30.43
2023-02-03T21:29:58.234Z,22.43
2023-02-03T21:32:30.846Z,23.23
2023-02-03T21:34:57.439Z,22.57
2023-02-03T21:37:23.869Z,27.43
2023-02-03T21:39:50.496Z,22.73
2023-02-03T21:42:40.940Z,28.67
2023-02-03T21:45:16.955Z,24.00
2023-02-03T21:47:44.732Z,19.47
2023-02-03T21:50:26.440Z,25.37
2023-02-03T21:52:52.896Z,25.77
2023-02-03T21:55:19.508Z,29.93
2023-02-03T21:57:48.019Z,24.90
2023-02-03T22:00:39.665Z,25.63
2023-02-03T22:03:08.325Z,34.23
2023-02-03T22:05:37.739Z,35.00
2023-02-03T22:08:21.579Z,29.37
2023-02-03T22:10:48.422Z,31.30
2023-02-03T22:13:15.650Z,26.93
2023-02-03T22:15:42.567Z,29.73
2023-02-03T22:18:09.139Z,30.17
2023-02-03T22:20:35.688Z,21.00
2023-02-03T22:23:02.316Z,31.27
2023-02-03T22:25:29.193Z,29.40
2023-02-03T22:27:55.669Z,23.10
2023-02-03T22:30:22.147Z,22.33
2023-02-03T22:32:48.552Z,22.53
2023-02-03T22:35:15.054Z,26.43
2023-02-03T22:37:41.546Z,21.13
2023-02-03T22:40:09.729Z,27.50
2023-02-03T22:42:36.279Z,24.97
2023-02-03T22:45:02.752Z,30.47
2023-02-03T22:47:29.304Z,32.37
2023-02-03T22:49:55.684Z,28.97
2023-02-03T22:52:22.113Z,25.40
2023-02-03T22:54:48.510Z,26.37
2023-02-03T22:57:14.940Z,27.93
2023-02-03T22:59:41.331Z,30.07
2023-02-03T23:02:07.852Z,24.27
2023-02-03T23:04:34.451Z,29.17
2023-02-03T23:07:26.591Z,32.93
2023-02-03T23:09:53.488Z,29.20
2023-02-03T23:12:19.902Z,32.77
2023-02-03T23:14:46.580Z,34.50
2023-02-03T23:17:13.072Z,25.73
2023-02-03T23:19:39.541Z,27.77
2023-02-03T23:22:05.919Z,25.53
2023-02-03T23:24:32.325Z,29.97
2023-02-03T23:26:59.074Z,30.57
2023-02-03T23:29:25.521Z,31.90
2023-02-03T23:31:51.996Z,26.90
2023-02-03T23:34:37.216Z,32.70
2023-02-03T23:37:03.776Z,23.03
2023-02-03T23:39:30.885Z,30.60
2023-02-03T23:41:58.090Z,32.23
2023-02-03T23:44:24.589Z,27.17
2023-02-03T23:46:51.051Z,28.00
2023-02-03T23:49:17.435Z,23.63
2023-02-03T23:51:43.841Z,24.17
2023-02-03T23:54:10.292Z,25.73
2023-02-03T23:56:36.703Z,27.40
2023-02-03T23:59:03.157Z,25.17
